createdAt,value
2017-05-25T00:00:22.034Z,1012.33
2017-05-25T00:01:18.572Z,1012.33
2017-05-25T00:02:17.004Z,1012.32
2017-05-25T00:03:13.468Z,1012.28
2017-05-25T00:04:09.876Z,1012.29
2017-05-25T00:05:07.116Z,1012.34
2017-05-25T00:06:03.452Z,1012.32
2017-05-25T00:06:59.946Z,1012.35
2017-05-25T00:07:57.609Z,1012.31
2017-05-25T00:08:56.017Z,1012.29
2017-05-25T00:09:53.404Z,1012.28
2017-05-25T00:10:49.804Z,1012.30
2017-05-25T00:11:46.188Z,1012.31
2017-05-25T00:12:43.629Z,1012.32
2017-05-25T00:13:40.188Z,1012.31
2017-05-25T00:14:36.543Z,1012.39
2017-05-25T00:15:32.949Z,1012.37
2017-05-25T00:16:29.598Z,1012.33
2017-05-25T00:17:25.998Z,1012.37
2017-05-25T00:18:22.413Z,1012.38
2017-05-25T00:19:21.938Z,1012.33
2017-05-25T00:20:18.294Z,1012.32
2017-05-25T00:21:15.784Z,1012.35
2017-05-25T00:22:14.145Z,1012.40
2017-05-25T00:23:10.906Z,1012.33
2017-05-25T00:24:07.550Z,1012.44
2017-05-25T00:25:04.172Z,1012.36
2017-05-25T00:26:00.870Z,1012.39
2017-05-25T00:26:57.518Z,1012.39
2017-05-25T00:27:53.858Z,1012.38
2017-05-25T00:28:52.308Z,1012.41
2017-05-25T00:29:48.690Z,1012.41
2017-05-25T00:30:45.333Z,1012.42
2017-05-25T00:31:42.597Z,1012.48
2017-05-25T00:32:39.818Z,1012.46
2017-05-25T00:33:36.116Z,1012.41
2017-05-25T00:35:43.332Z,1012.47
2017-05-25T00:36:40.796Z,1012.47
2017-05-25T00:37:39.560Z,1012.52
2017-05-25T00:38:37.031Z,1012.45
2017-05-25T00:39:34.340Z,1012.46
2017-05-25T00:41:44.400Z,1012.45
2017-05-25T00:42:46.608Z,1012.48
2017-05-25T00:43:43.931Z,1012.52
2017-05-25T00:44:40.203Z,1012.50
2017-05-25T00:45:36.559Z,1012.49
2017-05-25T00:46:32.897Z,1012.45
2017-05-25T00:49:51.468Z,1012.49
2017-05-25T00:50:49.816Z,1012.44
2017-05-25T00:51:46.148Z,1012.36
2017-05-25T00:52:43.640Z,1012.35
2017-05-25T00:53:41.084Z,1012.27
2017-05-25T00:54:38.379Z,1012.33
2017-05-25T00:55:34.704Z,1012.29
2017-05-25T00:56:34.248Z,1012.35
2017-05-25T00:57:30.540Z,1012.29
2017-05-25T00:58:28.656Z,1012.27
2017-05-25T00:59:26.305Z,1012.30
2017-05-25T01:00:24.576Z,1012.31
2017-05-25T01:01:26.405Z,1012.34
2017-05-25T01:02:24.032Z,1012.34
2017-05-25T01:03:20.403Z,1012.32
2017-05-25T01:04:17.552Z,1012.31
2017-05-25T01:05:20.259Z,1012.30
2017-05-25T01:06:17.531Z,1012.26
2017-05-25T01:07:15.017Z,1012.29
2017-05-25T01:09:22.545Z,1012.30
2017-05-25T01:10:20.683Z,1012.34
2017-05-25T01:11:17.033Z,1012.31
2017-05-25T01:13:25.369Z,1012.34
2017-05-25T01:14:27.832Z,1012.37
2017-05-25T01:15:26.283Z,1012.37
2017-05-25T01:17:34.476Z,1012.34
2017-05-25T01:18:32.673Z,1012.38
2017-05-25T01:19:28.991Z,1012.36
2017-05-25T01:20:26.076Z,1012.39
2017-05-25T01:21:24.524Z,1012.35
2017-05-25T01:22:20.956Z,1012.41
2017-05-25T01:23:17.316Z,1012.37
2017-05-25T01:24:14.768Z,1012.32
2017-05-25T01:25:14.318Z,1012.30
2017-05-25T01:27:22.803Z,1012.35
2017-05-25T01:28:20.033Z,1012.32
2017-05-25T01:29:17.225Z,1012.21
2017-05-25T01:30:18.892Z,1012.29
2017-05-25T01:31:15.220Z,1012.29
2017-05-25T01:32:11.667Z,1012.18
2017-05-25T01:33:08.036Z,1012.28
2017-05-25T01:35:12.270Z,1012.27
2017-05-25T01:36:09.143Z,1012.23
2017-05-25T01:37:05.655Z,1012.22
2017-05-25T01:38:03.763Z,1012.21
2017-05-25T01:40:16.823Z,1012.22
2017-05-25T01:41:13.119Z,1012.13
2017-05-25T01:42:09.466Z,1012.20
2017-05-25T01:44:16.071Z,1012.24
2017-05-25T01:45:14.392Z,1012.25
2017-05-25T01:46:13.315Z,1012.31
2017-05-25T01:47:15.796Z,1012.30
2017-05-25T01:50:33.277Z,1012.18
2017-05-25T01:51:31.592Z,1012.23
2017-05-25T01:53:40.700Z,1012.12
2017-05-25T01:54:37.376Z,1012.13
2017-05-25T01:59:10.508Z,1012.09
2017-05-25T02:00:06.857Z,1012.11
2017-05-25T02:01:09.313Z,1012.07
2017-05-25T02:02:05.995Z,1012.06
2017-05-25T02:03:07.341Z,1012.09
2017-05-25T02:05:17.398Z,1012.03
2017-05-25T02:06:15.664Z,1012.00
2017-05-25T02:07:13.220Z,1012.06
2017-05-25T02:08:09.983Z,1012.07
2017-05-25T02:09:06.584Z,1012.04
2017-05-25T02:10:04.173Z,1012.07
2017-05-25T02:11:02.580Z,1012.07
2017-05-25T02:12:03.344Z,1012.14
2017-05-25T02:13:01.669Z,1012.14
2017-05-25T02:13:58.060Z,1012.14
2017-05-25T02:15:02.949Z,1012.09
2017-05-25T02:15:59.507Z,1012.07
2017-05-25T02:16:58.176Z,1012.11
2017-05-25T02:17:56.862Z,1012.16
2017-05-25T02:18:53.203Z,1012.12
2017-05-25T02:19:50.404Z,1012.10
2017-05-25T02:20:46.762Z,1012.04
2017-05-25T02:21:43.052Z,1012.16
2017-05-25T02:22:39.360Z,1012.07
2017-05-25T02:23:36.271Z,1012.07
2017-05-25T02:24:32.615Z,1012.08
2017-05-25T02:25:30.828Z,1012.02
2017-05-25T02:26:28.987Z,1012.09
2017-05-25T02:27:29.208Z,1012.03
2017-05-25T02:28:25.563Z,1012.05
2017-05-25T02:29:23.245Z,1012.01
2017-05-25T02:30:20.348Z,1012.01
2017-05-25T02:31:18.701Z,1012.02
2017-05-25T02:34:51.532Z,1012.13
2017-05-25T02:35:48.355Z,1012.11
2017-05-25T02:36:45.156Z,1012.16
2017-05-25T02:37:45.384Z,1012.11
2017-05-25T02:38:44.563Z,1012.18
2017-05-25T02:42:09.009Z,1012.02
2017-05-25T02:43:11.645Z,1012.11
2017-05-25T02:44:09.951Z,1012.07
2017-05-25T02:46:20.235Z,1012.10
2017-05-25T02:47:18.695Z,1012.17
2017-05-25T02:50:42.200Z,1012.12
2017-05-25T02:51:40.661Z,1012.12
2017-05-25T02:52:38.792Z,1012.03
2017-05-25T02:54:52.125Z,1012.04
2017-05-25T02:55:51.485Z,1012.15
2017-05-25T02:56:49.124Z,1012.06
2017-05-25T03:00:08.584Z,1012.00
2017-05-25T03:01:05.452Z,1012.12
2017-05-25T03:02:09.741Z,1012.09
2017-05-25T03:03:08.204Z,1012.10
2017-05-25T03:04:11.208Z,1012.10
2017-05-25T03:05:13.569Z,1012.07
2017-05-25T03:19:10.996Z,1012.23
2017-05-25T03:20:14.613Z,1012.27
2017-05-25T03:21:13.049Z,1012.31
2017-05-25T03:22:12.115Z,1012.31
2017-05-25T03:24:21.476Z,1012.34
2017-05-25T03:25:18.091Z,1012.40
2017-05-25T03:26:18.510Z,1012.38
2017-05-25T03:29:38.240Z,1012.41
2017-05-25T03:30:41.242Z,1012.42
2017-05-25T03:36:25.705Z,1012.43
2017-05-25T03:39:53.062Z,1012.40
2017-05-25T03:40:53.399Z,1012.41
2017-05-25T03:41:50.953Z,1012.37
2017-05-25T03:42:53.612Z,1012.42
2017-05-25T03:43:56.576Z,1012.38
2017-05-25T03:44:57.940Z,1012.37
2017-05-25T03:47:14.900Z,1012.41
2017-05-25T03:53:08.964Z,1012.59
2017-05-25T03:56:30.037Z,1012.57
2017-05-25T03:57:32.848Z,1012.52
2017-05-25T03:59:39.189Z,1012.59
2017-05-25T04:01:52.944Z,1012.56
2017-05-25T04:02:51.716Z,1012.62
2017-05-25T04:03:50.037Z,1012.58
2017-05-25T04:04:48.417Z,1012.58
2017-05-25T04:08:07.173Z,1012.62
2017-05-25T04:10:23.116Z,1012.67
2017-05-25T04:11:21.552Z,1012.68
2017-05-25T04:12:19.751Z,1012.60
2017-05-25T04:13:18.536Z,1012.64
2017-05-25T04:18:07.846Z,1012.66
2017-05-25T04:19:06.733Z,1012.58
2017-05-25T04:21:18.008Z,1012.63
2017-05-25T04:23:25.804Z,1012.61
2017-05-25T04:25:37.467Z,1012.67
2017-05-25T04:26:34.611Z,1012.74
2017-05-25T04:27:31.069Z,1012.76
2017-05-25T04:28:31.684Z,1012.76
2017-05-25T04:30:50.856Z,1012.76
2017-05-25T04:31:49.271Z,1012.82
2017-05-25T04:34:00.732Z,1012.72
2017-05-25T04:35:00.356Z,1012.81
2017-05-25T04:35:58.901Z,1012.78
2017-05-25T04:36:57.105Z,1012.76
2017-05-25T04:39:05.380Z,1012.83
2017-05-25T04:41:19.843Z,1012.77
2017-05-25T04:42:18.440Z,1012.75
2017-05-25T04:43:15.711Z,1012.70
2017-05-25T04:45:30.057Z,1012.73
2017-05-25T04:46:28.351Z,1012.71
2017-05-25T04:47:27.892Z,1012.82
2017-05-25T04:48:30.456Z,1012.86
2017-05-25T04:49:34.161Z,1012.91
2017-05-25T04:52:59.704Z,1012.83
2017-05-25T04:58:50.505Z,1012.86
2017-05-25T04:59:53.027Z,1012.89
2017-05-25T05:03:22.125Z,1012.87
2017-05-25T05:04:24.806Z,1012.85
2017-05-25T05:05:29.685Z,1012.92
2017-05-25T05:06:28.415Z,1012.89
2017-05-25T05:09:52.481Z,1012.87
2017-05-25T05:12:05.854Z,1012.81
2017-05-25T05:13:04.257Z,1012.77
2017-05-25T05:14:05.624Z,1012.85
2017-05-25T05:15:04.245Z,1012.87
2017-05-25T05:16:06.294Z,1012.86
2017-05-25T05:18:09.512Z,1012.92
2017-05-25T05:19:06.757Z,1012.85
2017-05-25T05:20:11.185Z,1012.84
2017-05-25T05:21:10.796Z,1012.85
2017-05-25T05:22:09.349Z,1012.82
2017-05-25T05:23:07.903Z,1012.84
2017-05-25T05:28:51.771Z,1012.79
2017-05-25T05:29:49.131Z,1012.83
2017-05-25T05:30:51.816Z,1012.78
2017-05-25T05:31:50.349Z,1012.83
2017-05-25T05:38:48.177Z,1012.80
2017-05-25T05:39:51.083Z,1012.83
2017-05-25T05:40:49.692Z,1012.80
2017-05-25T05:41:46.326Z,1012.82
2017-05-25T05:43:57.537Z,1012.76
2017-05-25T05:44:54.748Z,1012.76
2017-05-25T05:45:52.116Z,1012.70
2017-05-25T05:47:56.068Z,1012.79
2017-05-25T05:48:55.308Z,1012.84
2017-05-25T05:49:55.856Z,1012.78
2017-05-25T05:50:54.187Z,1012.85
2017-05-25T05:51:52.668Z,1012.76
2017-05-25T05:52:51.238Z,1012.79
2017-05-25T05:53:49.775Z,1012.82
2017-05-25T05:55:50.235Z,1012.76
2017-05-25T05:56:46.853Z,1012.83
2017-05-25T05:57:43.188Z,1012.92
2017-05-25T05:58:39.451Z,1012.80
2017-05-25T05:59:42.134Z,1012.94
2017-05-25T06:00:42.677Z,1012.86
2017-05-25T06:01:44.056Z,1012.94
2017-05-25T06:02:40.523Z,1012.86
2017-05-25T06:04:41.839Z,1012.97
2017-05-25T06:05:40.192Z,1012.86
2017-05-25T06:06:36.625Z,1012.93
2017-05-25T06:08:41.897Z,1012.92
2017-05-25T06:09:40.496Z,1012.87
2017-05-25T06:10:37.224Z,1012.95
2017-05-25T06:11:37.827Z,1012.92
2017-05-25T06:12:36.203Z,1012.93
2017-05-25T06:13:33.037Z,1012.95
2017-05-25T06:14:34.012Z,1012.95
2017-05-25T06:15:34.124Z,1013.02
2017-05-25T06:16:30.569Z,1012.99
2017-05-25T06:17:26.802Z,1013.04
2017-05-25T06:18:23.036Z,1013.00
2017-05-25T06:19:19.267Z,1013.07
2017-05-25T06:20:15.512Z,1012.97
2017-05-25T06:21:11.738Z,1013.00
2017-05-25T06:22:07.958Z,1013.13
2017-05-25T06:23:04.187Z,1013.07
2017-05-25T06:24:00.414Z,1013.09
2017-05-25T06:24:56.676Z,1013.05
2017-05-25T06:26:03.155Z,1013.03
2017-05-25T06:27:01.467Z,1013.02
2017-05-25T06:28:03.243Z,1012.96
2017-05-25T06:29:00.427Z,1012.92
2017-05-25T06:31:09.576Z,1013.03
2017-05-25T06:32:08.149Z,1013.04
2017-05-25T06:34:21.289Z,1013.02
2017-05-25T06:35:19.604Z,1013.13
2017-05-25T06:36:19.241Z,1013.14
2017-05-25T06:37:17.328Z,1013.09
2017-05-25T06:38:13.697Z,1013.12
2017-05-25T06:39:12.195Z,1013.08
2017-05-25T06:40:09.451Z,1013.21
2017-05-25T06:41:07.780Z,1013.15
2017-05-25T06:42:04.115Z,1013.12
2017-05-25T06:43:00.443Z,1013.08
2017-05-25T06:43:58.687Z,1013.10
2017-05-25T06:44:56.936Z,1013.16
2017-05-25T06:46:59.451Z,1013.03
2017-05-25T06:47:55.876Z,1013.14
2017-05-25T06:48:52.375Z,1013.15
2017-05-25T06:49:48.852Z,1013.21
2017-05-25T06:50:45.956Z,1013.20
2017-05-25T06:51:47.463Z,1013.20
2017-05-25T06:52:45.741Z,1013.11
2017-05-25T06:53:43.976Z,1013.14
2017-05-25T06:54:40.644Z,1013.18
2017-05-25T06:55:41.952Z,1013.25
2017-05-25T06:56:41.686Z,1013.22
2017-05-25T06:57:44.209Z,1013.22
2017-05-25T06:58:40.576Z,1013.26
2017-05-25T06:59:38.959Z,1013.28
2017-05-25T07:00:35.959Z,1013.25
2017-05-25T07:01:33.159Z,1013.31
2017-05-25T07:02:31.568Z,1013.27
2017-05-25T07:03:29.933Z,1013.32
2017-05-25T07:04:28.245Z,1013.28
2017-05-25T07:05:28.715Z,1013.30
2017-05-25T07:06:26.059Z,1013.27
2017-05-25T07:08:25.741Z,1013.28
2017-05-25T07:09:23.382Z,1013.31
2017-05-25T07:10:21.692Z,1013.35
2017-05-25T07:11:18.240Z,1013.41
2017-05-25T07:12:15.735Z,1013.35
2017-05-25T07:14:23.855Z,1013.36
2017-05-25T07:15:22.029Z,1013.29
2017-05-25T07:16:18.348Z,1013.29
2017-05-25T07:17:14.638Z,1013.36
2017-05-25T07:18:10.913Z,1013.32
2017-05-25T07:19:09.072Z,1013.35
2017-05-25T07:20:07.339Z,1013.35
2017-05-25T07:21:04.672Z,1013.28
2017-05-25T07:22:02.784Z,1013.31
2017-05-25T07:23:00.122Z,1013.27
2017-05-25T07:23:58.377Z,1013.35
2017-05-25T07:24:54.981Z,1013.37
2017-05-25T07:25:51.272Z,1013.38
2017-05-25T07:26:48.378Z,1013.31
2017-05-25T07:27:45.503Z,1013.31
2017-05-25T07:29:54.676Z,1013.33
2017-05-25T07:30:50.987Z,1013.31
2017-05-25T07:31:49.200Z,1013.30
2017-05-25T07:32:45.512Z,1013.25
2017-05-25T07:33:43.873Z,1013.27
2017-05-25T07:34:40.300Z,1013.28
2017-05-25T07:35:38.576Z,1013.31
2017-05-25T07:36:35.903Z,1013.26
2017-05-25T07:37:33.103Z,1013.27
2017-05-25T07:38:29.416Z,1013.24
2017-05-25T07:39:25.843Z,1013.27
2017-05-25T07:40:22.286Z,1013.29
2017-05-25T07:41:18.587Z,1013.30
2017-05-25T07:42:15.796Z,1013.33
2017-05-25T07:43:12.160Z,1013.34
2017-05-25T07:44:08.439Z,1013.28
2017-05-25T07:45:05.699Z,1013.30
2017-05-25T07:46:03.075Z,1013.31
2017-05-25T07:47:01.157Z,1013.32
2017-05-25T07:47:58.196Z,1013.34
2017-05-25T07:48:59.236Z,1013.33
2017-05-25T07:50:00.174Z,1013.26
2017-05-25T07:50:59.136Z,1013.38
2017-05-25T07:51:56.245Z,1013.30
2017-05-25T07:52:54.468Z,1013.27
2017-05-25T07:53:50.953Z,1013.28
2017-05-25T07:54:48.331Z,1013.26
2017-05-25T07:55:45.619Z,1013.26
2017-05-25T07:56:42.876Z,1013.25
2017-05-25T07:57:39.174Z,1013.26
2017-05-25T07:58:35.495Z,1013.30
2017-05-25T07:59:31.932Z,1013.35
2017-05-25T08:00:28.245Z,1013.31
2017-05-25T08:01:24.667Z,1013.24
2017-05-25T08:02:21.823Z,1013.28
2017-05-25T08:03:20.056Z,1013.27
2017-05-25T08:04:17.307Z,1013.23
2017-05-25T08:05:13.645Z,1013.30
2017-05-25T08:06:10.879Z,1013.32
2017-05-25T08:07:07.192Z,1013.36
2017-05-25T08:08:03.515Z,1013.31
2017-05-25T08:08:59.855Z,1013.26
2017-05-25T08:09:56.369Z,1013.31
2017-05-25T08:10:52.727Z,1013.32
2017-05-25T08:11:49.045Z,1013.35
2017-05-25T08:12:45.443Z,1013.30
2017-05-25T08:13:41.784Z,1013.32
2017-05-25T08:14:38.159Z,1013.40
2017-05-25T08:15:34.500Z,1013.37
2017-05-25T08:16:30.783Z,1013.44
2017-05-25T08:17:28.208Z,1013.49
2017-05-25T08:18:24.563Z,1013.39
2017-05-25T08:19:20.859Z,1013.46
2017-05-25T08:20:18.152Z,1013.42
2017-05-25T08:21:14.493Z,1013.45
2017-05-25T08:22:10.746Z,1013.47
2017-05-25T08:23:07.295Z,1013.50
2017-05-25T08:24:03.603Z,1013.40
2017-05-25T08:25:00.961Z,1013.36
2017-05-25T08:25:59.238Z,1013.34
2017-05-25T08:26:56.491Z,1013.36
2017-05-25T08:27:53.078Z,1013.36
2017-05-25T08:28:50.331Z,1013.30
2017-05-25T08:29:46.592Z,1013.32
2017-05-25T08:30:42.911Z,1013.32
2017-05-25T08:31:39.359Z,1013.36
2017-05-25T08:32:35.749Z,1013.27
2017-05-25T08:33:31.992Z,1013.28
2017-05-25T08:34:30.531Z,1013.31
2017-05-25T08:36:38.496Z,1013.34
2017-05-25T08:37:34.783Z,1013.33
2017-05-25T08:38:31.348Z,1013.32
2017-05-25T08:39:28.046Z,1013.33
2017-05-25T08:40:25.564Z,1013.32
2017-05-25T08:41:21.827Z,1013.27
2017-05-25T08:42:19.217Z,1013.33
2017-05-25T08:43:16.965Z,1013.23
2017-05-25T08:44:13.360Z,1013.21
2017-05-25T08:45:10.725Z,1013.21
2017-05-25T08:46:08.179Z,1013.26
2017-05-25T08:47:04.799Z,1013.16
2017-05-25T08:48:02.963Z,1013.24
2017-05-25T08:48:59.310Z,1013.27
2017-05-25T08:49:55.652Z,1013.21
2017-05-25T08:50:51.963Z,1013.19
2017-05-25T08:51:48.207Z,1013.28
2017-05-25T08:52:45.653Z,1013.23
2017-05-25T08:53:42.331Z,1013.26
2017-05-25T08:54:40.915Z,1013.19
2017-05-25T08:55:37.435Z,1013.32
2017-05-25T08:56:33.727Z,1013.33
2017-05-25T08:57:30.018Z,1013.32
2017-05-25T08:58:26.303Z,1013.35
2017-05-25T08:59:22.663Z,1013.27
2017-05-25T09:00:19.030Z,1013.32
2017-05-25T09:01:15.439Z,1013.29
2017-05-25T09:02:11.691Z,1013.30
2017-05-25T09:03:07.963Z,1013.28
2017-05-25T09:04:04.223Z,1013.32
2017-05-25T09:05:00.475Z,1013.24
2017-05-25T09:05:56.779Z,1013.28
2017-05-25T09:06:53.051Z,1013.21
2017-05-25T09:07:49.379Z,1013.26
2017-05-25T09:08:45.679Z,1013.25
2017-05-25T09:09:42.108Z,1013.15
2017-05-25T09:10:38.608Z,1013.17
2017-05-25T09:11:34.967Z,1013.12
2017-05-25T09:12:31.223Z,1013.17
2017-05-25T09:13:27.935Z,1013.23
2017-05-25T09:14:24.234Z,1013.22
2017-05-25T09:15:20.493Z,1013.16
2017-05-25T09:16:16.732Z,1013.13
2017-05-25T09:17:12.971Z,1013.10
2017-05-25T09:18:09.248Z,1013.16
2017-05-25T09:19:05.510Z,1013.15
2017-05-25T09:20:01.949Z,1013.19
2017-05-25T09:20:58.203Z,1013.16
2017-05-25T09:21:54.461Z,1013.16
2017-05-25T09:22:50.908Z,1013.15
2017-05-25T09:23:47.491Z,1013.10
2017-05-25T09:24:43.749Z,1013.15
2017-05-25T09:25:40.056Z,1013.13
2017-05-25T09:26:36.313Z,1013.16
2017-05-25T09:27:32.844Z,1013.21
2017-05-25T09:28:29.502Z,1013.20
2017-05-25T09:29:25.835Z,1013.09
2017-05-25T09:30:22.260Z,1013.19
2017-05-25T09:31:18.832Z,1013.14
2017-05-25T09:32:15.211Z,1013.16
2017-05-25T09:33:11.469Z,1013.11
2017-05-25T09:34:07.731Z,1013.16
2017-05-25T09:35:03.988Z,1013.16
2017-05-25T09:36:00.305Z,1013.04
2017-05-25T09:36:57.475Z,1013.01
2017-05-25T09:37:53.727Z,1013.09
2017-05-25T09:38:49.963Z,1013.12
2017-05-25T09:39:46.245Z,1013.16
2017-05-25T09:40:42.884Z,1013.25
2017-05-25T09:41:39.364Z,1013.14
2017-05-25T09:42:35.823Z,1013.17
2017-05-25T09:43:32.075Z,1013.22
2017-05-25T09:44:28.554Z,1013.17
2017-05-25T09:45:24.793Z,1013.20
2017-05-25T09:46:21.048Z,1013.15
2017-05-25T09:47:17.295Z,1013.15
2017-05-25T09:48:13.547Z,1013.20
2017-05-25T09:49:09.841Z,1013.21
2017-05-25T09:50:06.082Z,1013.14
2017-05-25T09:51:02.332Z,1013.21
2017-05-25T09:51:58.591Z,1013.12
2017-05-25T09:52:54.848Z,1013.15
2017-05-25T09:53:51.103Z,1013.06
2017-05-25T09:54:47.404Z,1013.12
2017-05-25T09:55:43.667Z,1013.12
2017-05-25T09:56:39.927Z,1013.15
2017-05-25T09:57:36.203Z,1013.19
2017-05-25T09:58:32.604Z,1013.08
2017-05-25T09:59:28.828Z,1013.18
2017-05-25T10:00:25.266Z,1013.20
2017-05-25T10:01:21.702Z,1013.15
2017-05-25T10:02:17.955Z,1013.11
2017-05-25T10:03:14.347Z,1013.11
2017-05-25T10:04:10.858Z,1013.07
2017-05-25T10:05:07.236Z,1013.09
2017-05-25T10:06:03.675Z,1013.06
2017-05-25T10:07:00.187Z,1013.04
2017-05-25T10:07:56.489Z,1013.09
2017-05-25T10:08:52.831Z,1012.96
2017-05-25T10:09:49.219Z,1013.01
2017-05-25T10:10:45.774Z,1013.03
2017-05-25T10:11:42.201Z,1013.00
2017-05-25T10:12:38.635Z,1013.03
2017-05-25T10:13:34.890Z,1013.01
2017-05-25T10:14:31.383Z,1012.96
2017-05-25T10:15:27.639Z,1012.96
2017-05-25T10:16:23.899Z,1013.05
2017-05-25T10:17:20.163Z,1013.00
2017-05-25T10:18:16.429Z,1013.01
2017-05-25T10:19:12.705Z,1013.00
2017-05-25T10:20:09.153Z,1012.92
2017-05-25T10:21:05.641Z,1012.89
2017-05-25T10:22:02.019Z,1012.93
2017-05-25T10:22:58.278Z,1012.93
2017-05-25T10:23:54.552Z,1012.97
2017-05-25T10:24:50.924Z,1012.89
2017-05-25T10:25:47.243Z,1012.93
2017-05-25T10:26:43.667Z,1012.90
2017-05-25T10:27:39.924Z,1012.87
2017-05-25T10:28:36.265Z,1012.91
2017-05-25T10:29:33.656Z,1012.80
2017-05-25T10:30:30.091Z,1012.80
2017-05-25T10:31:26.403Z,1012.78
2017-05-25T10:32:22.685Z,1012.82
2017-05-25T10:33:18.979Z,1012.85
2017-05-25T10:34:16.270Z,1012.82
2017-05-25T10:35:12.749Z,1012.79
2017-05-25T10:36:09.046Z,1012.81
2017-05-25T10:37:05.386Z,1012.84
2017-05-25T10:38:01.708Z,1012.88
2017-05-25T10:38:58.188Z,1012.84
2017-05-25T10:39:54.531Z,1012.74
2017-05-25T10:40:50.918Z,1012.81
2017-05-25T10:41:47.221Z,1012.76
2017-05-25T10:42:43.519Z,1012.81
2017-05-25T10:43:39.760Z,1012.78
2017-05-25T10:44:35.994Z,1012.83
2017-05-25T10:45:32.359Z,1012.88
2017-05-25T10:46:28.844Z,1012.82
2017-05-25T10:47:26.499Z,1012.79
2017-05-25T10:48:23.075Z,1012.74
2017-05-25T10:49:19.503Z,1012.82
2017-05-25T10:50:18.593Z,1012.73
2017-05-25T10:51:16.114Z,1012.77
2017-05-25T10:52:12.991Z,1012.75
2017-05-25T10:53:09.340Z,1012.74
2017-05-25T10:54:05.583Z,1012.81
2017-05-25T10:55:01.827Z,1012.75
2017-05-25T10:55:58.078Z,1012.68
2017-05-25T10:56:54.327Z,1012.73
2017-05-25T10:57:50.580Z,1012.68
2017-05-25T10:58:46.883Z,1012.70
2017-05-25T10:59:43.295Z,1012.62
2017-05-25T11:00:39.924Z,1012.73
2017-05-25T11:01:36.267Z,1012.64
2017-05-25T11:02:32.527Z,1012.57
2017-05-25T11:03:28.774Z,1012.61
2017-05-25T11:04:25.152Z,1012.67
2017-05-25T11:05:21.402Z,1012.66
2017-05-25T11:06:17.638Z,1012.62
2017-05-25T11:07:13.931Z,1012.63
2017-05-25T11:08:10.390Z,1012.67
2017-05-25T11:09:06.813Z,1012.70
2017-05-25T11:10:03.227Z,1012.79
2017-05-25T11:10:59.475Z,1012.62
2017-05-25T11:11:55.807Z,1012.65
2017-05-25T11:12:52.215Z,1012.65
2017-05-25T11:13:48.559Z,1012.63
2017-05-25T11:14:45.135Z,1012.58
2017-05-25T11:15:41.447Z,1012.65
2017-05-25T11:16:37.703Z,1012.59
2017-05-25T11:17:33.956Z,1012.64
2017-05-25T11:18:30.191Z,1012.46
2017-05-25T11:19:26.451Z,1012.51
2017-05-25T11:20:22.710Z,1012.53
2017-05-25T11:21:19.175Z,1012.50
2017-05-25T11:22:15.427Z,1012.47
2017-05-25T11:23:11.809Z,1012.43
2017-05-25T11:24:08.276Z,1012.46
2017-05-25T11:25:04.811Z,1012.47
2017-05-25T11:26:01.119Z,1012.48
2017-05-25T11:26:57.519Z,1012.54
2017-05-25T11:27:53.976Z,1012.37
2017-05-25T11:28:50.413Z,1012.41
2017-05-25T11:29:46.867Z,1012.36
2017-05-25T11:30:43.111Z,1012.38
2017-05-25T11:31:39.374Z,1012.35
2017-05-25T11:32:35.745Z,1012.35
2017-05-25T11:33:32.164Z,1012.35
2017-05-25T11:34:28.772Z,1012.40
2017-05-25T11:35:25.108Z,1012.39
2017-05-25T11:36:21.387Z,1012.33
2017-05-25T11:37:17.635Z,1012.35
2017-05-25T11:38:13.878Z,1012.31
2017-05-25T11:39:10.136Z,1012.29
2017-05-25T11:40:06.386Z,1012.31
2017-05-25T11:41:02.681Z,1012.34
2017-05-25T11:41:59.064Z,1012.34
2017-05-25T11:42:55.315Z,1012.28
2017-05-25T11:43:51.567Z,1012.29
2017-05-25T11:44:47.854Z,1012.26
2017-05-25T11:45:44.152Z,1012.22
2017-05-25T11:46:40.450Z,1012.19
2017-05-25T11:47:36.743Z,1012.27
2017-05-25T11:48:33.038Z,1012.29
2017-05-25T11:49:29.403Z,1012.24
2017-05-25T11:50:25.728Z,1012.37
2017-05-25T11:51:21.979Z,1012.26
2017-05-25T11:52:18.236Z,1012.27
2017-05-25T11:53:14.536Z,1012.30
2017-05-25T11:54:10.846Z,1012.24
2017-05-25T11:55:07.168Z,1012.23
2017-05-25T11:56:03.416Z,1012.30
2017-05-25T11:56:59.682Z,1012.22
2017-05-25T11:57:55.937Z,1012.25
2017-05-25T11:58:52.247Z,1012.23
2017-05-25T11:59:48.571Z,1012.16
2017-05-25T12:00:44.851Z,1012.19
2017-05-25T12:01:41.115Z,1012.22
2017-05-25T12:02:37.344Z,1012.20
2017-05-25T12:03:33.619Z,1012.24
2017-05-25T12:04:29.856Z,1012.14
2017-05-25T12:05:26.108Z,1012.23
2017-05-25T12:06:22.387Z,1012.16
2017-05-25T12:07:18.624Z,1012.14
2017-05-25T12:08:14.872Z,1012.11
2017-05-25T12:09:11.176Z,1012.17
2017-05-25T12:10:07.454Z,1012.12
2017-05-25T12:11:03.742Z,1012.17
2017-05-25T12:12:00.043Z,1012.09
2017-05-25T12:12:56.292Z,1012.14
2017-05-25T12:13:52.546Z,1012.14
2017-05-25T12:14:48.785Z,1012.16
2017-05-25T12:15:45.015Z,1012.06
2017-05-25T12:16:41.267Z,1012.16
2017-05-25T12:17:37.532Z,1012.15
2017-05-25T12:18:33.785Z,1012.10
2017-05-25T12:19:30.039Z,1012.17
2017-05-25T12:20:26.283Z,1012.22
2017-05-25T12:21:22.535Z,1012.15
2017-05-25T12:22:18.775Z,1012.19
2017-05-25T12:23:15.015Z,1012.07
2017-05-25T12:24:11.255Z,1012.12
2017-05-25T12:25:07.570Z,1012.07
2017-05-25T12:26:03.827Z,1012.10
2017-05-25T12:27:00.091Z,1012.04
2017-05-25T12:27:56.339Z,1012.13
2017-05-25T12:28:52.567Z,1012.08
2017-05-25T12:29:48.804Z,1012.06
2017-05-25T12:30:45.050Z,1012.03
2017-05-25T12:31:41.301Z,1012.00
2017-05-25T12:32:37.543Z,1012.08
2017-05-25T12:33:33.798Z,1012.00
2017-05-25T12:34:30.041Z,1011.95
2017-05-25T12:35:26.304Z,1012.02
2017-05-25T12:36:22.572Z,1011.97
2017-05-25T12:37:18.831Z,1011.89
2017-05-25T12:38:15.063Z,1011.94
2017-05-25T12:39:11.313Z,1011.92
2017-05-25T12:40:07.550Z,1011.79
2017-05-25T12:41:03.816Z,1011.98
2017-05-25T12:42:00.062Z,1011.92
2017-05-25T12:42:56.303Z,1011.89
2017-05-25T12:43:52.545Z,1011.92
2017-05-25T12:44:48.795Z,1011.91
2017-05-25T12:45:45.086Z,1011.87
2017-05-25T12:46:41.336Z,1011.91
2017-05-25T12:47:37.563Z,1011.86
2017-05-25T12:48:33.808Z,1011.88
2017-05-25T12:49:30.046Z,1011.88
2017-05-25T12:50:26.279Z,1011.91
2017-05-25T12:51:22.543Z,1011.84
2017-05-25T12:52:18.819Z,1011.89
2017-05-25T12:53:15.052Z,1011.85
2017-05-25T12:54:11.299Z,1011.86
2017-05-25T12:55:07.546Z,1011.87
2017-05-25T12:56:03.793Z,1011.81
2017-05-25T12:57:00.035Z,1011.85
2017-05-25T12:57:56.292Z,1011.75
2017-05-25T12:58:52.536Z,1011.83
2017-05-25T12:59:48.788Z,1011.77
2017-05-25T13:00:45.059Z,1011.80
2017-05-25T13:01:41.316Z,1011.75
2017-05-25T13:02:37.591Z,1011.68
2017-05-25T13:03:33.887Z,1011.78
2017-05-25T13:04:30.170Z,1011.76
2017-05-25T13:05:26.468Z,1011.75
2017-05-25T13:06:22.743Z,1011.74
2017-05-25T13:07:19.016Z,1011.79
2017-05-25T13:08:15.328Z,1011.73
2017-05-25T13:09:11.579Z,1011.80
2017-05-25T13:10:08.100Z,1011.73
2017-05-25T13:11:05.396Z,1011.79
2017-05-25T13:12:01.659Z,1011.74
2017-05-25T13:12:57.912Z,1011.73
2017-05-25T13:13:54.193Z,1011.71
2017-05-25T13:14:50.443Z,1011.70
2017-05-25T13:15:46.687Z,1011.72
2017-05-25T13:16:42.928Z,1011.77
2017-05-25T13:17:39.196Z,1011.76
2017-05-25T13:18:35.457Z,1011.73
2017-05-25T13:19:31.738Z,1011.68
2017-05-25T13:20:27.995Z,1011.72
2017-05-25T13:21:24.230Z,1011.68
2017-05-25T13:22:20.473Z,1011.70
2017-05-25T13:23:16.710Z,1011.67
2017-05-25T13:24:12.975Z,1011.67
2017-05-25T13:25:09.302Z,1011.66
2017-05-25T13:26:05.548Z,1011.59
2017-05-25T13:27:02.951Z,1011.67
2017-05-25T13:27:59.223Z,1011.69
2017-05-25T13:28:55.463Z,1011.56
2017-05-25T13:29:51.744Z,1011.57
2017-05-25T13:30:48.003Z,1011.59
2017-05-25T13:31:44.244Z,1011.59
2017-05-25T13:32:40.505Z,1011.58
2017-05-25T13:33:36.756Z,1011.50
2017-05-25T13:34:33.001Z,1011.41
2017-05-25T13:35:29.271Z,1011.54
2017-05-25T13:36:25.519Z,1011.55
2017-05-25T13:37:21.763Z,1011.44